sensor_id;sensor_type;location;lat;lon;timestamp;P1;durP1;ratioP1;P2;durP2;ratioP2
71965;SDS011;59836;52.132;5.442;2022-10-31T00:00:05;7.72;;;5.70;;
71965;SDS011;59836;52.132;5.442;2022-10-31T00:02:36;10.93;;;5.47;;
71965;SDS011;59836;52.132;5.442;2022-10-31T00:05:03;9.98;;;5.43;;
71965;SDS011;59836;52.132;5.442;2022-10-31T00:07:34;11.73;;;5.53;;
71965;SDS011;59836;52.132;5.442;2022-10-31T00:12:55;8.30;;;5.03;;
71965;SDS011;59836;52.132;5.442;2022-10-31T00:15:34;7.97;;;5.20;;
71965;SDS011;59836;52.132;5.442;2022-10-31T00:18:06;13.43;;;5.70;;
71965;SDS011;59836;52.132;5.442;2022-10-31T00:20:33;10.77;;;5.20;;
71965;SDS011;59836;52.132;5.442;2022-10-31T00:23:09;11.55;;;6.25;;
71965;SDS011;59836;52.132;5.442;2022-10-31T00:25:37;14.23;;;6.20;;
71965;SDS011;59836;52.132;5.442;2022-10-31T00:28:21;10.53;;;5.87;;
71965;SDS011;59836;52.132;5.442;2022-10-31T00:30:47;8.48;;;5.40;;
71965;SDS011;59836;52.132;5.442;2022-10-31T00:36:07;9.88;;;5.78;;
71965;SDS011;59836;52.132;5.442;2022-10-31T00:38:48;8.80;;;5.55;;
71965;SDS011;59836;52.132;5.442;2022-10-31T00:41:15;10.00;;;5.47;;
71965;SDS011;59836;52.132;5.442;2022-10-31T00:43:49;9.82;;;5.95;;
71965;SDS011;59836;52.132;5.442;2022-10-31T00:46:15;9.85;;;6.15;;
71965;SDS011;59836;52.132;5.442;2022-10-31T00:48:46;7.97;;;5.00;;
71965;SDS011;59836;52.132;5.442;2022-10-31T00:51:12;7.32;;;5.40;;
71965;SDS011;59836;52.132;5.442;2022-10-31T00:53:46;9.80;;;6.40;;
71965;SDS011;59836;52.132;5.442;2022-10-31T00:59:17;10.02;;;5.47;;
71965;SDS011;59836;52.132;5.442;2022-10-31T01:01:43;10.07;;;5.70;;
71965;SDS011;59836;52.132;5.442;2022-10-31T01:04:28;11.10;;;6.32;;
71965;SDS011;59836;52.132;5.442;2022-10-31T01:07:11;10.07;;;6.47;;
71965;SDS011;59836;52.132;5.442;2022-10-31T01:09:55;9.13;;;6.82;;
71965;SDS011;59836;52.132;5.442;2022-10-31T01:15:15;9.98;;;6.72;;
71965;SDS011;59836;52.132;5.442;2022-10-31T01:17:54;12.68;;;6.20;;
71965;SDS011;59836;52.132;5.442;2022-10-31T01:20:21;9.33;;;6.30;;
71965;SDS011;59836;52.132;5.442;2022-10-31T01:25:23;9.45;;;6.10;;
71965;SDS011;59836;52.132;5.442;2022-10-31T01:27:49;8.90;;;6.00;;
71965;SDS011;59836;52.132;5.442;2022-10-31T01:30:16;9.65;;;6.25;;
71965;SDS011;59836;52.132;5.442;2022-10-31T01:32:44;10.33;;;6.43;;
71965;SDS011;59836;52.132;5.442;2022-10-31T01:35:11;8.98;;;6.10;;
71965;SDS011;59836;52.132;5.442;2022-10-31T01:37:37;10.32;;;6.05;;
71965;SDS011;59836;52.132;5.442;2022-10-31T01:40:18;11.05;;;6.70;;
71965;SDS011;59836;52.132;5.442;2022-10-31T01:42:56;8.85;;;6.03;;
71965;SDS011;59836;52.132;5.442;2022-10-31T01:45:23;9.53;;;5.80;;
71965;SDS011;59836;52.132;5.442;2022-10-31T01:47:49;13.80;;;6.03;;
71965;SDS011;59836;52.132;5.442;2022-10-31T01:50:28;10.80;;;6.38;;
71965;SDS011;59836;52.132;5.442;2022-10-31T01:52:58;10.45;;;6.20;;
71965;SDS011;59836;52.132;5.442;2022-10-31T01:55:26;9.65;;;5.63;;
71965;SDS011;59836;52.132;5.442;2022-10-31T01:58:01;9.83;;;5.77;;
71965;SDS011;59836;52.132;5.442;2022-10-31T02:00:33;7.72;;;6.00;;
71965;SDS011;59836;52.132;5.442;2022-10-31T02:03:16;9.68;;;6.53;;
71965;SDS011;59836;52.132;5.442;2022-10-31T02:05:44;9.57;;;6.00;;
71965;SDS011;59836;52.132;5.442;2022-10-31T02:10:56;9.20;;;6.00;;
71965;SDS011;59836;52.132;5.442;2022-10-31T02:13:24;10.95;;;6.38;;
71965;SDS011;59836;52.132;5.442;2022-10-31T02:15:52;10.98;;;6.40;;
71965;SDS011;59836;52.132;5.442;2022-10-31T02:18:21;9.45;;;6.18;;
71965;SDS011;59836;52.132;5.442;2022-10-31T02:23:52;11.50;;;5.90;;
71965;SDS011;59836;52.132;5.442;2022-10-31T02:29:41;9.50;;;5.97;;
71965;SDS011;59836;52.132;5.442;2022-10-31T02:32:31;9.63;;;6.10;;
71965;SDS011;59836;52.132;5.442;2022-10-31T02:38:19;8.83;;;5.27;;
71965;SDS011;59836;52.132;5.442;2022-10-31T02:43:49;9.73;;;5.75;;
71965;SDS011;59836;52.132;5.442;2022-10-31T02:46:34;11.02;;;6.07;;
71965;SDS011;59836;52.132;5.442;2022-10-31T02:49:21;10.25;;;6.03;;
71965;SDS011;59836;52.132;5.442;2022-10-31T02:54:58;10.15;;;5.93;;
71965;SDS011;59836;52.132;5.442;2022-10-31T02:57:42;10.70;;;5.78;;
71965;SDS011;59836;52.132;5.442;2022-10-31T03:00:23;7.35;;;5.70;;
71965;SDS011;59836;52.132;5.442;2022-10-31T03:02:56;10.55;;;5.93;;
71965;SDS011;59836;52.132;5.442;2022-10-31T03:08:49;6.72;;;5.38;;
71965;SDS011;59836;52.132;5.442;2022-10-31T03:11:22;7.93;;;5.15;;
71965;SDS011;59836;52.132;5.442;2022-10-31T03:16:49;7.97;;;5.32;;
71965;SDS011;59836;52.132;5.442;2022-10-31T03:19:34;8.37;;;5.67;;
71965;SDS011;59836;52.132;5.442;2022-10-31T03:22:07;7.53;;;5.53;;
71965;SDS011;59836;52.132;5.442;2022-10-31T03:24:47;8.30;;;5.18;;
71965;SDS011;59836;52.132;5.442;2022-10-31T03:27:18;9.30;;;5.40;;
71965;SDS011;59836;52.132;5.442;2022-10-31T03:29:50;7.63;;;5.22;;
71965;SDS011;59836;52.132;5.442;2022-10-31T03:32:26;8.20;;;5.53;;
71965;SDS011;59836;52.132;5.442;2022-10-31T03:34:58;8.57;;;5.68;;
71965;SDS011;59836;52.132;5.442;2022-10-31T03:37:29;7.57;;;5.07;;
71965;SDS011;59836;52.132;5.442;2022-10-31T03:42:55;9.18;;;5.13;;
71965;SDS011;59836;52.132;5.442;2022-10-31T03:45:32;9.50;;;5.33;;
71965;SDS011;59836;52.132;5.442;2022-10-31T03:48:06;7.68;;;5.40;;
71965;SDS011;59836;52.132;5.442;2022-10-31T03:53:19;10.27;;;4.18;;
71965;SDS011;59836;52.132;5.442;2022-10-31T03:55:52;7.32;;;4.60;;
71965;SDS011;59836;52.132;5.442;2022-10-31T04:01:20;10.38;;;4.82;;
71965;SDS011;59836;52.132;5.442;2022-10-31T04:03:49;7.93;;;4.20;;
71965;SDS011;59836;52.132;5.442;2022-10-31T04:06:21;12.70;;;5.10;;
71965;SDS011;59836;52.132;5.442;2022-10-31T04:08:51;9.48;;;5.05;;
71965;SDS011;59836;52.132;5.442;2022-10-31T04:11:21;6.70;;;4.13;;
71965;SDS011;59836;52.132;5.442;2022-10-31T04:13:52;7.15;;;4.47;;
71965;SDS011;59836;52.132;5.442;2022-10-31T04:16:21;6.80;;;4.47;;
71965;SDS011;59836;52.132;5.442;2022-10-31T04:18:49;7.47;;;4.93;;
71965;SDS011;59836;52.132;5.442;2022-10-31T04:21:15;8.10;;;4.88;;
71965;SDS011;59836;52.132;5.442;2022-10-31T04:23:43;6.33;;;4.67;;
71965;SDS011;59836;52.132;5.442;2022-10-31T04:26:14;7.43;;;4.32;;
71965;SDS011;59836;52.132;5.442;2022-10-31T04:28:40;6.28;;;4.55;;
71965;SDS011;59836;52.132;5.442;2022-10-31T04:31:08;6.88;;;4.63;;
71965;SDS011;59836;52.132;5.442;2022-10-31T04:33:36;7.22;;;4.38;;
71965;SDS011;59836;52.132;5.442;2022-10-31T04:36:12;6.90;;;4.57;;
71965;SDS011;59836;52.132;5.442;2022-10-31T04:38:39;8.10;;;4.20;;
71965;SDS011;59836;52.132;5.442;2022-10-31T04:41:06;6.70;;;3.60;;
71965;SDS011;59836;52.132;5.442;2022-10-31T04:43:51;6.60;;;3.90;;
71965;SDS011;59836;52.132;5.442;2022-10-31T04:46:21;6.15;;;3.80;;
71965;SDS011;59836;52.132;5.442;2022-10-31T04:48:48;5.87;;;3.70;;
71965;SDS011;59836;52.132;5.442;2022-10-31T04:51:22;5.95;;;3.78;;
71965;SDS011;59836;52.132;5.442;2022-10-31T04:56:30;6.68;;;3.88;;
71965;SDS011;59836;52.132;5.442;2022-10-31T04:59:03;6.00;;;3.67;;
71965;SDS011;59836;52.132;5.442;2022-10-31T05:01:29;6.27;;;3.13;;
71965;SDS011;59836;52.132;5.442;2022-10-31T05:04:07;5.63;;;3.28;;
71965;SDS011;59836;52.132;5.442;2022-10-31T05:06:33;5.60;;;3.13;;
71965;SDS011;59836;52.132;5.442;2022-10-31T05:09:00;4.93;;;2.80;;
71965;SDS011;59836;52.132;5.442;2022-10-31T05:11:26;5.60;;;2.85;;
71965;SDS011;59836;52.132;5.442;2022-10-31T05:13:56;5.17;;;3.37;;
71965;SDS011;59836;52.132;5.442;2022-10-31T05:16:29;4.65;;;3.50;;
71965;SDS011;59836;52.132;5.442;2022-10-31T05:21:50;9.18;;;4.00;;
71965;SDS011;59836;52.132;5.442;2022-10-31T05:27:20;19.13;;;4.83;;
71965;SDS011;59836;52.132;5.442;2022-10-31T05:30:01;13.50;;;5.65;;
71965;SDS011;59836;52.132;5.442;2022-10-31T05:32:27;9.75;;;4.80;;
71965;SDS011;59836;52.132;5.442;2022-10-31T05:34:55;11.77;;;5.82;;
71965;SDS011;59836;52.132;5.442;2022-10-31T05:37:24;7.78;;;4.78;;
71965;SDS011;59836;52.132;5.442;2022-10-31T05:39:56;12.83;;;5.77;;
71965;SDS011;59836;52.132;5.442;2022-10-31T05:42:30;10.82;;;5.50;;
71965;SDS011;59836;52.132;5.442;2022-10-31T05:44:57;10.73;;;5.90;;
71965;SDS011;59836;52.132;5.442;2022-10-31T05:47:23;11.93;;;6.18;;
71965;SDS011;59836;52.132;5.442;2022-10-31T05:49:55;12.23;;;5.88;;
71965;SDS011;59836;52.132;5.442;2022-10-31T05:52:21;11.43;;;6.00;;
71965;SDS011;59836;52.132;5.442;2022-10-31T05:57:31;20.85;;;6.18;;
71965;SDS011;59836;52.132;5.442;2022-10-31T06:00:00;14.43;;;6.20;;
71965;SDS011;59836;52.132;5.442;2022-10-31T06:02:27;18.90;;;6.63;;
71965;SDS011;59836;52.132;5.442;2022-10-31T06:04:58;18.10;;;6.90;;
71965;SDS011;59836;52.132;5.442;2022-10-31T06:07:31;11.90;;;6.43;;
71965;SDS011;59836;52.132;5.442;2022-10-31T06:10:00;16.25;;;6.75;;
71965;SDS011;59836;52.132;5.442;2022-10-31T06:12:27;23.38;;;6.90;;
71965;SDS011;59836;52.132;5.442;2022-10-31T06:15:01;22.98;;;7.63;;
71965;SDS011;59836;52.132;5.442;2022-10-31T06:17:29;29.53;;;7.30;;
71965;SDS011;59836;52.132;5.442;2022-10-31T06:19:57;19.27;;;7.15;;
71965;SDS011;59836;52.132;5.442;2022-10-31T06:22:32;19.25;;;6.60;;
71965;SDS011;59836;52.132;5.442;2022-10-31T06:24:59;21.92;;;7.07;;
71965;SDS011;59836;52.132;5.442;2022-10-31T06:27:25;20.40;;;6.55;;
71965;SDS011;59836;52.132;5.442;2022-10-31T06:29:52;19.10;;;7.10;;
71965;SDS011;59836;52.132;5.442;2022-10-31T06:32:27;17.95;;;6.30;;
71965;SDS011;59836;52.132;5.442;2022-10-31T06:34:53;20.20;;;7.20;;
71965;SDS011;59836;52.132;5.442;2022-10-31T06:37:22;29.20;;;7.82;;
71965;SDS011;59836;52.132;5.442;2022-10-31T06:39:59;25.67;;;7.95;;
71965;SDS011;59836;52.132;5.442;2022-10-31T06:42:26;32.43;;;7.83;;
71965;SDS011;59836;52.132;5.442;2022-10-31T06:45:02;19.10;;;7.40;;
71965;SDS011;59836;52.132;5.442;2022-10-31T06:47:28;29.15;;;7.68;;
71965;SDS011;59836;52.132;5.442;2022-10-31T06:52:53;18.88;;;7.35;;
71965;SDS011;59836;52.132;5.442;2022-10-31T06:58:09;25.05;;;7.20;;
71965;SDS011;59836;52.132;5.442;2022-10-31T07:00:37;19.10;;;6.72;;
71965;SDS011;59836;52.132;5.442;2022-10-31T07:03:11;21.25;;;7.35;;
71965;SDS011;59836;52.132;5.442;2022-10-31T07:05:39;19.40;;;7.25;;
71965;SDS011;59836;52.132;5.442;2022-10-31T07:08:07;26.43;;;6.93;;
71965;SDS011;59836;52.132;5.442;2022-10-31T07:10:35;16.98;;;7.30;;
71965;SDS011;59836;52.132;5.442;2022-10-31T07:13:12;16.88;;;6.93;;
71965;SDS011;59836;52.132;5.442;2022-10-31T07:15:50;26.02;;;7.47;;
71965;SDS011;59836;52.132;5.442;2022-10-31T07:21:17;20.77;;;6.97;;
71965;SDS011;59836;52.132;5.442;2022-10-31T07:23:47;27.05;;;8.40;;
71965;SDS011;59836;52.132;5.442;2022-10-31T07:26:18;18.77;;;7.60;;
71965;SDS011;59836;52.132;5.442;2022-10-31T07:31:37;20.17;;;8.00;;
71965;SDS011;59836;52.132;5.442;2022-10-31T07:34:03;25.27;;;8.33;;
71965;SDS011;59836;52.132;5.442;2022-10-31T07:39:17;22.50;;;8.65;;
71965;SDS011;59836;52.132;5.442;2022-10-31T07:41:43;19.27;;;8.45;;
71965;SDS011;59836;52.132;5.442;2022-10-31T07:44:12;25.33;;;8.75;;
71965;SDS011;59836;52.132;5.442;2022-10-31T07:49:31;28.25;;;8.68;;
71965;SDS011;59836;52.132;5.442;2022-10-31T07:51:57;16.98;;;7.90;;
71965;SDS011;59836;52.132;5.442;2022-10-31T07:54:24;14.73;;;8.80;;
71965;SDS011;59836;52.132;5.442;2022-10-31T07:59:32;19.03;;;7.57;;
71965;SDS011;59836;52.132;5.442;2022-10-31T08:02:01;18.73;;;8.70;;
71965;SDS011;59836;52.132;5.442;2022-10-31T08:04:27;15.63;;;8.35;;
71965;SDS011;59836;52.132;5.442;2022-10-31T08:06:54;19.58;;;8.88;;
71965;SDS011;59836;52.132;5.442;2022-10-31T08:11:52;16.00;;;8.27;;
71965;SDS011;59836;52.132;5.442;2022-10-31T08:14:19;18.75;;;9.10;;
71965;SDS011;59836;52.132;5.442;2022-10-31T08:16:45;13.15;;;8.35;;
71965;SDS011;59836;52.132;5.442;2022-10-31T08:19:18;12.27;;;8.60;;
71965;SDS011;59836;52.132;5.442;2022-10-31T08:21:45;13.27;;;8.45;;
71965;SDS011;59836;52.132;5.442;2022-10-31T08:24:22;13.47;;;8.43;;
71965;SDS011;59836;52.132;5.442;2022-10-31T08:26:48;12.38;;;8.20;;
71965;SDS011;59836;52.132;5.442;2022-10-31T08:29:15;12.98;;;8.90;;
71965;SDS011;59836;52.132;5.442;2022-10-31T08:31:42;15.35;;;9.07;;
71965;SDS011;59836;52.132;5.442;2022-10-31T08:34:08;14.50;;;9.65;;
71965;SDS011;59836;52.132;5.442;2022-10-31T08:36:35;15.47;;;9.27;;
71965;SDS011;59836;52.132;5.442;2022-10-31T08:39:02;14.98;;;9.63;;
71965;SDS011;59836;52.132;5.442;2022-10-31T08:41:29;14.93;;;9.25;;
71965;SDS011;59836;52.132;5.442;2022-10-31T08:43:56;15.68;;;10.38;;
71965;SDS011;59836;52.132;5.442;2022-10-31T08:46:23;16.67;;;11.07;;
71965;SDS011;59836;52.132;5.442;2022-10-31T08:48:50;17.50;;;11.33;;
71965;SDS011;59836;52.132;5.442;2022-10-31T08:51:35;16.77;;;11.30;;
71965;SDS011;59836;52.132;5.442;2022-10-31T08:54:03;14.70;;;10.20;;
71965;SDS011;59836;52.132;5.442;2022-10-31T08:56:30;17.05;;;11.50;;
71965;SDS011;59836;52.132;5.442;2022-10-31T08:59:13;15.90;;;10.00;;
71965;SDS011;59836;52.132;5.442;2022-10-31T09:01:39;15.63;;;10.20;;
71965;SDS011;59836;52.132;5.442;2022-10-31T09:04:06;15.73;;;10.60;;
71965;SDS011;59836;52.132;5.442;2022-10-31T09:06:34;16.65;;;10.52;;
71965;SDS011;59836;52.132;5.442;2022-10-31T09:09:10;16.23;;;10.60;;
71965;SDS011;59836;52.132;5.442;2022-10-31T09:11:37;19.23;;;10.35;;
71965;SDS011;59836;52.132;5.442;2022-10-31T09:14:03;16.20;;;10.57;;
71965;SDS011;59836;52.132;5.442;2022-10-31T09:16:32;18.58;;;12.70;;
71965;SDS011;59836;52.132;5.442;2022-10-31T09:21:41;19.73;;;11.95;;
71965;SDS011;59836;52.132;5.442;2022-10-31T09:26:48;22.93;;;13.37;;
71965;SDS011;59836;52.132;5.442;2022-10-31T09:29:15;24.02;;;13.55;;
71965;SDS011;59836;52.132;5.442;2022-10-31T09:31:59;23.80;;;13.65;;
71965;SDS011;59836;52.132;5.442;2022-10-31T09:34:25;21.75;;;13.15;;
71965;SDS011;59836;52.132;5.442;2022-10-31T09:36:52;23.08;;;13.43;;
71965;SDS011;59836;52.132;5.442;2022-10-31T09:39:19;22.60;;;13.70;;
71965;SDS011;59836;52.132;5.442;2022-10-31T09:41:52;20.02;;;12.50;;
71965;SDS011;59836;52.132;5.442;2022-10-31T09:51:43;21.02;;;12.60;;
71965;SDS011;59836;52.132;5.442;2022-10-31T09:54:19;22.73;;;12.77;;
71965;SDS011;59836;52.132;5.442;2022-10-31T09:56:56;23.55;;;14.13;;
71965;SDS011;59836;52.132;5.442;2022-10-31T09:59:28;23.95;;;13.45;;
71965;SDS011;59836;52.132;5.442;2022-10-31T10:02:01;29.10;;;15.52;;
71965;SDS011;59836;52.132;5.442;2022-10-31T10:04:34;29.98;;;16.80;;
71965;SDS011;59836;52.132;5.442;2022-10-31T10:07:02;28.43;;;17.17;;
71965;SDS011;59836;52.132;5.442;2022-10-31T10:09:48;27.75;;;17.20;;
71965;SDS011;59836;52.132;5.442;2022-10-31T10:15:06;24.10;;;15.82;;
71965;SDS011;59836;52.132;5.442;2022-10-31T10:20:43;22.10;;;14.97;;
71965;SDS011;59836;52.132;5.442;2022-10-31T10:28:43;20.50;;;12.73;;
71965;SDS011;59836;52.132;5.442;2022-10-31T10:31:14;21.17;;;12.77;;
71965;SDS011;59836;52.132;5.442;2022-10-31T10:33:51;19.80;;;11.50;;
71965;SDS011;59836;52.132;5.442;2022-10-31T10:36:44;18.73;;;11.60;;
71965;SDS011;59836;52.132;5.442;2022-10-31T10:39:13;17.65;;;10.68;;
71965;SDS011;59836;52.132;5.442;2022-10-31T10:41:47;17.42;;;10.75;;
71965;SDS011;59836;52.132;5.442;2022-10-31T10:44:42;15.60;;;9.13;;
71965;SDS011;59836;52.132;5.442;2022-10-31T10:47:39;17.37;;;10.77;;
71965;SDS011;59836;52.132;5.442;2022-10-31T10:52:49;18.02;;;9.52;;
71965;SDS011;59836;52.132;5.442;2022-10-31T10:55:36;16.98;;;9.73;;
71965;SDS011;59836;52.132;5.442;2022-10-31T10:58:10;19.58;;;10.65;;
71965;SDS011;59836;52.132;5.442;2022-10-31T11:00:44;19.40;;;9.87;;
71965;SDS011;59836;52.132;5.442;2022-10-31T11:03:16;19.60;;;10.45;;
71965;SDS011;59836;52.132;5.442;2022-10-31T11:11:43;15.05;;;8.65;;
71965;SDS011;59836;52.132;5.442;2022-10-31T11:25:52;16.75;;;8.40;;
71965;SDS011;59836;52.132;5.442;2022-10-31T11:28:38;18.60;;;8.73;;
71965;SDS011;59836;52.132;5.442;2022-10-31T11:31:12;18.45;;;9.10;;
71965;SDS011;59836;52.132;5.442;2022-10-31T11:33:46;17.80;;;8.35;;
71965;SDS011;59836;52.132;5.442;2022-10-31T11:39:12;20.20;;;9.40;;
71965;SDS011;59836;52.132;5.442;2022-10-31T11:41:46;25.30;;;10.70;;
71965;SDS011;59836;52.132;5.442;2022-10-31T11:47:03;20.63;;;10.40;;
71965;SDS011;59836;52.132;5.442;2022-10-31T11:49:33;22.38;;;10.27;;
71965;SDS011;59836;52.132;5.442;2022-10-31T11:55:15;25.70;;;10.97;;
71965;SDS011;59836;52.132;5.442;2022-10-31T11:57:51;25.05;;;12.35;;
71965;SDS011;59836;52.132;5.442;2022-10-31T12:00:24;24.55;;;12.00;;
71965;SDS011;59836;52.132;5.442;2022-10-31T12:02:51;23.55;;;10.93;;
71965;SDS011;59836;52.132;5.442;2022-10-31T12:05:30;23.55;;;11.35;;
71965;SDS011;59836;52.132;5.442;2022-10-31T12:07:59;26.60;;;12.00;;
71965;SDS011;59836;52.132;5.442;2022-10-31T12:10:39;25.95;;;13.07;;
71965;SDS011;59836;52.132;5.442;2022-10-31T12:13:22;25.48;;;11.95;;
71965;SDS011;59836;52.132;5.442;2022-10-31T12:18:42;25.48;;;11.52;;
71965;SDS011;59836;52.132;5.442;2022-10-31T12:24:22;27.45;;;11.38;;
71965;SDS011;59836;52.132;5.442;2022-10-31T12:30:02;21.65;;;11.65;;
71965;SDS011;59836;52.132;5.442;2022-10-31T12:38:13;24.08;;;12.55;;
71965;SDS011;59836;52.132;5.442;2022-10-31T12:41:16;23.77;;;11.65;;
71965;SDS011;59836;52.132;5.442;2022-10-31T12:44:28;23.05;;;11.55;;
71965;SDS011;59836;52.132;5.442;2022-10-31T12:47:23;26.98;;;12.35;;
71965;SDS011;59836;52.132;5.442;2022-10-31T12:58:07;28.25;;;12.20;;
71965;SDS011;59836;52.132;5.442;2022-10-31T13:00:42;26.27;;;11.85;;
71965;SDS011;59836;52.132;5.442;2022-10-31T13:03:18;23.70;;;11.87;;
71965;SDS011;59836;52.132;5.442;2022-10-31T13:05:48;26.95;;;12.13;;
71965;SDS011;59836;52.132;5.442;2022-10-31T13:08:28;28.45;;;12.80;;
71965;SDS011;59836;52.132;5.442;2022-10-31T13:11:06;26.40;;;12.75;;
71965;SDS011;59836;52.132;5.442;2022-10-31T13:14:25;29.00;;;12.30;;
71965;SDS011;59836;52.132;5.442;2022-10-31T13:16:44;22.33;;;12.47;;
71965;SDS011;59836;52.132;5.442;2022-10-31T13:19:17;27.45;;;12.18;;
71965;SDS011;59836;52.132;5.442;2022-10-31T13:21:57;28.02;;;11.77;;
71965;SDS011;59836;52.132;5.442;2022-10-31T13:24:36;25.48;;;13.00;;
71965;SDS011;59836;52.132;5.442;2022-10-31T13:27:17;28.05;;;13.75;;
71965;SDS011;59836;52.132;5.442;2022-10-31T13:30:03;29.37;;;14.03;;
71965;SDS011;59836;52.132;5.442;2022-10-31T13:32:46;27.20;;;12.77;;
71965;SDS011;59836;52.132;5.442;2022-10-31T13:35:27;29.63;;;12.93;;
71965;SDS011;59836;52.132;5.442;2022-10-31T13:40:51;28.55;;;13.85;;
71965;SDS011;59836;52.132;5.442;2022-10-31T13:48:58;27.90;;;13.40;;
71965;SDS011;59836;52.132;5.442;2022-10-31T13:51:26;33.28;;;14.80;;
71965;SDS011;59836;52.132;5.442;2022-10-31T13:53:59;31.45;;;14.55;;
71965;SDS011;59836;52.132;5.442;2022-10-31T13:56:47;28.53;;;14.17;;
71965;SDS011;59836;52.132;5.442;2022-10-31T13:59:25;29.17;;;13.73;;
71965;SDS011;59836;52.132;5.442;2022-10-31T14:01:55;30.67;;;14.07;;
71965;SDS011;59836;52.132;5.442;2022-10-31T14:04:25;32.45;;;14.32;;
71965;SDS011;59836;52.132;5.442;2022-10-31T14:10:25;28.97;;;13.23;;
71965;SDS011;59836;52.132;5.442;2022-10-31T14:13:02;28.20;;;13.70;;
71965;SDS011;59836;52.132;5.442;2022-10-31T14:15:40;29.80;;;13.27;;
71965;SDS011;59836;52.132;5.442;2022-10-31T14:18:28;28.15;;;14.80;;
71965;SDS011;59836;52.132;5.442;2022-10-31T14:23:51;27.27;;;13.47;;
71965;SDS011;59836;52.132;5.442;2022-10-31T14:32:26;31.70;;;13.80;;
71965;SDS011;59836;52.132;5.442;2022-10-31T14:40:20;26.38;;;13.65;;
71965;SDS011;59836;52.132;5.442;2022-10-31T14:51:38;32.73;;;14.00;;
71965;SDS011;59836;52.132;5.442;2022-10-31T14:54:10;27.75;;;14.77;;
71965;SDS011;59836;52.132;5.442;2022-10-31T14:56:43;29.70;;;12.77;;
71965;SDS011;59836;52.132;5.442;2022-10-31T15:02:30;30.83;;;13.63;;
71965;SDS011;59836;52.132;5.442;2022-10-31T15:05:27;29.57;;;14.77;;
71965;SDS011;59836;52.132;5.442;2022-10-31T15:07:56;29.92;;;14.63;;
71965;SDS011;59836;52.132;5.442;2022-10-31T15:10:35;27.73;;;14.40;;
71965;SDS011;59836;52.132;5.442;2022-10-31T15:13:10;30.92;;;14.88;;
71965;SDS011;59836;52.132;5.442;2022-10-31T15:15:43;34.45;;;15.30;;
71965;SDS011;59836;52.132;5.442;2022-10-31T15:18:21;30.70;;;15.43;;
71965;SDS011;59836;52.132;5.442;2022-10-31T15:20:52;28.73;;;14.65;;
71965;SDS011;59836;52.132;5.442;2022-10-31T15:26:19;29.38;;;14.75;;
71965;SDS011;59836;52.132;5.442;2022-10-31T15:34:43;27.08;;;13.18;;
71965;SDS011;59836;52.132;5.442;2022-10-31T15:37:17;29.67;;;13.88;;
71965;SDS011;59836;52.132;5.442;2022-10-31T15:39:45;32.53;;;14.27;;
71965;SDS011;59836;52.132;5.442;2022-10-31T15:42:14;27.27;;;13.48;;
71965;SDS011;59836;52.132;5.442;2022-10-31T15:44:47;29.83;;;13.90;;
71965;SDS011;59836;52.132;5.442;2022-10-31T15:47:18;30.98;;;14.10;;
71965;SDS011;59836;52.132;5.442;2022-10-31T15:49:58;26.50;;;13.07;;
71965;SDS011;59836;52.132;5.442;2022-10-31T15:55:27;28.25;;;12.60;;
71965;SDS011;59836;52.132;5.442;2022-10-31T15:57:58;28.83;;;13.60;;
71965;SDS011;59836;52.132;5.442;2022-10-31T16:00:37;27.10;;;12.68;;
71965;SDS011;59836;52.132;5.442;2022-10-31T16:05:47;25.80;;;12.43;;
71965;SDS011;59836;52.132;5.442;2022-10-31T16:08:34;25.65;;;11.88;;
71965;SDS011;59836;52.132;5.442;2022-10-31T16:13:53;24.15;;;12.20;;
71965;SDS011;59836;52.132;5.442;2022-10-31T16:16:22;28.20;;;12.10;;
71965;SDS011;59836;52.132;5.442;2022-10-31T16:21:44;27.02;;;12.45;;
71965;SDS011;59836;52.132;5.442;2022-10-31T16:24:15;26.83;;;12.23;;
71965;SDS011;59836;52.132;5.442;2022-10-31T16:26:53;25.42;;;11.68;;
71965;SDS011;59836;52.132;5.442;2022-10-31T16:29:25;23.15;;;11.27;;
71965;SDS011;59836;52.132;5.442;2022-10-31T16:31:54;30.27;;;11.93;;
71965;SDS011;59836;52.132;5.442;2022-10-31T16:34:27;29.27;;;12.32;;
71965;SDS011;59836;52.132;5.442;2022-10-31T16:36:53;29.37;;;11.77;;
71965;SDS011;59836;52.132;5.442;2022-10-31T16:39:31;26.30;;;12.23;;
71965;SDS011;59836;52.132;5.442;2022-10-31T16:42:14;28.35;;;11.60;;
71965;SDS011;59836;52.132;5.442;2022-10-31T16:44:47;26.55;;;11.63;;
71965;SDS011;59836;52.132;5.442;2022-10-31T16:50:05;25.57;;;11.93;;
71965;SDS011;59836;52.132;5.442;2022-10-31T16:55:46;30.98;;;12.73;;
71965;SDS011;59836;52.132;5.442;2022-10-31T16:58:21;27.33;;;12.95;;
71965;SDS011;59836;52.132;5.442;2022-10-31T17:00:51;32.55;;;13.27;;
71965;SDS011;59836;52.132;5.442;2022-10-31T17:06:37;27.27;;;13.68;;
71965;SDS011;59836;52.132;5.442;2022-10-31T17:09:03;30.15;;;13.57;;
71965;SDS011;59836;52.132;5.442;2022-10-31T17:11:31;28.88;;;13.68;;
71965;SDS011;59836;52.132;5.442;2022-10-31T17:14:02;32.92;;;13.65;;
71965;SDS011;59836;52.132;5.442;2022-10-31T17:16:30;30.90;;;12.77;;
71965;SDS011;59836;52.132;5.442;2022-10-31T17:18:56;30.67;;;13.52;;
71965;SDS011;59836;52.132;5.442;2022-10-31T17:21:23;31.35;;;12.77;;
71965;SDS011;59836;52.132;5.442;2022-10-31T17:27:00;29.40;;;13.07;;
71965;SDS011;59836;52.132;5.442;2022-10-31T17:29:32;28.97;;;14.53;;
71965;SDS011;59836;52.132;5.442;2022-10-31T17:32:00;30.95;;;14.05;;
71965;SDS011;59836;52.132;5.442;2022-10-31T17:34:34;25.52;;;12.80;;
71965;SDS011;59836;52.132;5.442;2022-10-31T17:37:04;30.15;;;13.93;;
71965;SDS011;59836;52.132;5.442;2022-10-31T17:39:30;28.17;;;14.13;;
71965;SDS011;59836;52.132;5.442;2022-10-31T17:41:57;32.17;;;14.40;;
71965;SDS011;59836;52.132;5.442;2022-10-31T17:44:32;29.45;;;13.70;;
71965;SDS011;59836;52.132;5.442;2022-10-31T17:46:59;30.85;;;14.60;;
71965;SDS011;59836;52.132;5.442;2022-10-31T17:52:14;25.65;;;13.30;;
71965;SDS011;59836;52.132;5.442;2022-10-31T17:54:40;27.57;;;13.43;;
71965;SDS011;59836;52.132;5.442;2022-10-31T17:57:18;26.63;;;13.30;;
71965;SDS011;59836;52.132;5.442;2022-10-31T17:59:46;22.80;;;12.82;;
71965;SDS011;59836;52.132;5.442;2022-10-31T18:02:12;26.13;;;12.80;;
71965;SDS011;59836;52.132;5.442;2022-10-31T18:04:41;25.40;;;12.57;;
71965;SDS011;59836;52.132;5.442;2022-10-31T18:07:16;26.27;;;12.13;;
71965;SDS011;59836;52.132;5.442;2022-10-31T18:09:47;29.08;;;12.63;;
71965;SDS011;59836;52.132;5.442;2022-10-31T18:12:14;30.55;;;13.27;;
71965;SDS011;59836;52.132;5.442;2022-10-31T18:14:42;27.77;;;13.57;;
71965;SDS011;59836;52.132;5.442;2022-10-31T18:17:13;33.25;;;13.52;;
71965;SDS011;59836;52.132;5.442;2022-10-31T18:19:40;28.50;;;13.50;;
71965;SDS011;59836;52.132;5.442;2022-10-31T18:22:12;29.40;;;12.38;;
71965;SDS011;59836;52.132;5.442;2022-10-31T18:24:38;26.35;;;13.52;;
71965;SDS011;59836;52.132;5.442;2022-10-31T18:27:05;30.08;;;13.90;;
71965;SDS011;59836;52.132;5.442;2022-10-31T18:29:34;26.85;;;12.77;;
71965;SDS011;59836;52.132;5.442;2022-10-31T18:32:02;25.33;;;13.50;;
71965;SDS011;59836;52.132;5.442;2022-10-31T18:34:34;25.95;;;12.40;;
71965;SDS011;59836;52.132;5.442;2022-10-31T18:37:03;32.00;;;12.85;;
71965;SDS011;59836;52.132;5.442;2022-10-31T18:42:01;27.05;;;12.70;;
71965;SDS011;59836;52.132;5.442;2022-10-31T18:50:09;23.77;;;12.18;;
71965;SDS011;59836;52.132;5.442;2022-10-31T18:52:46;24.30;;;12.98;;
71965;SDS011;59836;52.132;5.442;2022-10-31T18:55:14;25.17;;;12.38;;
71965;SDS011;59836;52.132;5.442;2022-10-31T18:57:41;21.97;;;11.40;;